createdAt,value
2018-03-24T00:01:55.800Z,95516.26
2018-03-24T00:04:23.280Z,95513.63
2018-03-24T00:06:50.860Z,95509.41
2018-03-24T00:09:18.269Z,95510.39
2018-03-24T00:11:45.755Z,95502.66
2018-03-24T00:14:13.245Z,95500.95
2018-03-24T00:16:40.722Z,95498.11
2018-03-24T00:19:08.112Z,95503.31
2018-03-24T00:21:35.513Z,95500.22
2018-03-24T00:24:02.924Z,95492.92
2018-03-24T00:26:30.328Z,95486.41
2018-03-24T00:28:58.109Z,95494.55
2018-03-24T00:31:25.528Z,95487.02
2018-03-24T00:33:52.951Z,95490.72
2018-03-24T00:36:20.438Z,95487.97
2018-03-24T00:38:47.943Z,95485.88
2018-03-24T00:41:15.369Z,95485.62
2018-03-24T00:43:42.825Z,95487.89
2018-03-24T00:46:10.283Z,95488.72
2018-03-24T00:48:37.737Z,95485.44
2018-03-24T00:51:05.238Z,95479.55
2018-03-24T00:53:32.680Z,95477.10
2018-03-24T00:56:00.114Z,95470.66
2018-03-24T00:58:27.547Z,95466.28
2018-03-24T01:00:55.005Z,95470.72
2018-03-24T01:03:22.452Z,95473.09
2018-03-24T01:05:49.885Z,95476.32
2018-03-24T01:08:17.293Z,95470.49
2018-03-24T01:10:44.754Z,95461.76
2018-03-24T01:13:12.211Z,95466.07
2018-03-24T01:15:39.690Z,95461.61
2018-03-24T01:18:07.110Z,95460.05
2018-03-24T01:20:34.564Z,95456.05
2018-03-24T01:23:01.951Z,95446.39
2018-03-24T01:25:29.385Z,95449.56
2018-03-24T01:27:56.792Z,95447.19
2018-03-24T01:30:24.261Z,95452.23
2018-03-24T01:32:51.677Z,95449.90
2018-03-24T01:35:19.163Z,95454.91
2018-03-24T01:37:46.921Z,95453.05
2018-03-24T01:40:15.081Z,95445.69
2018-03-24T01:42:42.492Z,95452.01
2018-03-24T01:45:09.947Z,95445.47
2018-03-24T01:47:37.368Z,95450.34
2018-03-24T01:50:04.822Z,95441.68
2018-03-24T01:52:32.242Z,95442.02
2018-03-24T01:55:00.204Z,95444.89
2018-03-24T01:57:28.483Z,95437.95
2018-03-24T01:59:56.624Z,95435.03
2018-03-24T02:02:24.045Z,95437.28
2018-03-24T02:04:51.564Z,95430.73
2018-03-24T02:07:19.019Z,95427.41
2018-03-24T02:09:46.476Z,95416.00
2018-03-24T02:12:13.942Z,95416.34
2018-03-24T02:14:41.359Z,95410.27
2018-03-24T02:17:08.799Z,95417.50
2018-03-24T02:19:36.242Z,95409.09
2018-03-24T02:22:03.674Z,95417.24
2018-03-24T02:24:31.205Z,95410.27
2018-03-24T02:26:58.694Z,95411.94
2018-03-24T02:29:26.154Z,95403.59
2018-03-24T02:31:53.605Z,95401.82
2018-03-24T02:34:21.040Z,95401.19
2018-03-24T02:36:48.538Z,95396.22
2018-03-24T02:39:15.928Z,95400.36
2018-03-24T02:41:43.384Z,95394.09
2018-03-24T02:44:10.790Z,95386.03
2018-03-24T02:46:38.263Z,95386.20
2018-03-24T02:49:05.689Z,95388.03
2018-03-24T02:51:33.143Z,95394.36
2018-03-24T02:54:00.561Z,95394.20
2018-03-24T02:56:27.985Z,95397.00
2018-03-24T02:58:55.432Z,95395.23
2018-03-24T03:01:22.851Z,95395.16
2018-03-24T03:03:50.290Z,95387.03
2018-03-24T03:06:17.743Z,95387.02
2018-03-24T03:08:45.156Z,95396.05
2018-03-24T03:11:12.568Z,95396.78
2018-03-24T03:13:39.997Z,95396.14
2018-03-24T03:16:07.418Z,95398.23
2018-03-24T03:18:34.804Z,95402.06
2018-03-24T03:21:02.259Z,95400.69
2018-03-24T03:23:29.669Z,95405.28
2018-03-24T03:25:57.130Z,95412.09
2018-03-24T03:28:24.557Z,95411.50
2018-03-24T03:33:48.033Z,95409.91
2018-03-24T03:36:15.490Z,95414.62
2018-03-24T03:38:42.921Z,95410.11
2018-03-24T03:41:10.349Z,95410.90
2018-03-24T03:43:37.825Z,95409.61
2018-03-24T03:46:05.223Z,95409.62
2018-03-24T03:48:32.619Z,95408.39
2018-03-24T03:51:00.221Z,95410.72
2018-03-24T03:53:27.649Z,95410.15
2018-03-24T03:55:55.298Z,95409.73
2018-03-24T03:58:22.692Z,95423.07
2018-03-24T04:00:50.166Z,95417.75
2018-03-24T04:03:17.596Z,95420.61
2018-03-24T04:05:45.360Z,95417.13
2018-03-24T04:08:12.897Z,95413.89
2018-03-24T04:10:40.484Z,95421.08
2018-03-24T04:13:07.873Z,95422.42
2018-03-24T04:15:36.160Z,95426.91
2018-03-24T04:18:03.824Z,95426.98
2018-03-24T04:20:31.280Z,95434.61
2018-03-24T04:22:58.702Z,95429.43
2018-03-24T04:25:26.202Z,95431.14
2018-03-24T04:27:53.635Z,95429.27
2018-03-24T04:30:21.020Z,95430.37
2018-03-24T04:32:48.971Z,95438.70
2018-03-24T04:35:16.409Z,95445.40
2018-03-24T04:37:43.830Z,95443.94
2018-03-24T04:40:11.250Z,95442.94
2018-03-24T04:42:38.674Z,95441.70
2018-03-24T04:45:06.159Z,95443.91
2018-03-24T04:47:33.574Z,95445.95
2018-03-24T04:50:01.225Z,95450.25
2018-03-24T04:52:28.636Z,95443.17
2018-03-24T04:54:56.061Z,95448.17
2018-03-24T04:57:23.984Z,95447.36
2018-03-24T04:59:51.377Z,95443.09
2018-03-24T05:02:18.813Z,95444.48
2018-03-24T05:04:46.238Z,95442.66
2018-03-24T05:07:13.837Z,95441.81
2018-03-24T05:09:41.301Z,95442.24
2018-03-24T05:12:08.748Z,95444.05
2018-03-24T05:14:36.189Z,95437.93
2018-03-24T05:17:03.680Z,95444.41
2018-03-24T05:19:31.123Z,95444.38
2018-03-24T05:21:58.544Z,95444.15
2018-03-24T05:24:26.031Z,95444.80
2018-03-24T05:26:53.440Z,95452.42
2018-03-24T05:29:20.881Z,95447.73
2018-03-24T05:31:48.413Z,95447.09
2018-03-24T05:34:15.810Z,95454.17
2018-03-24T05:36:43.374Z,95449.42
2018-03-24T05:39:10.984Z,95452.44
2018-03-24T05:41:38.735Z,95453.61
2018-03-24T05:44:06.341Z,95450.44
2018-03-24T05:46:33.830Z,95455.66
2018-03-24T05:49:01.287Z,95450.53
2018-03-24T05:51:28.674Z,95455.80
2018-03-24T05:53:56.084Z,95452.45
2018-03-24T05:56:23.646Z,95445.89
2018-03-24T05:58:51.028Z,95449.97
2018-03-24T06:01:18.505Z,95454.05
2018-03-24T06:03:46.020Z,95453.28
2018-03-24T06:06:13.486Z,95458.85
2018-03-24T06:08:40.886Z,95449.73
2018-03-24T06:11:08.346Z,95450.25
2018-03-24T06:13:35.810Z,95458.73
2018-03-24T06:16:03.234Z,95458.06
2018-03-24T06:18:30.652Z,95457.66
2018-03-24T06:20:58.095Z,95449.47
2018-03-24T06:23:25.505Z,95459.28
2018-03-24T06:25:52.938Z,95458.20
2018-03-24T06:28:20.398Z,95457.23
2018-03-24T06:30:50.160Z,95457.30
2018-03-24T06:33:17.544Z,95457.22
2018-03-24T06:35:45.007Z,95464.17
2018-03-24T06:38:12.442Z,95461.23
2018-03-24T06:40:39.922Z,95465.27
2018-03-24T06:43:07.538Z,95461.08
2018-03-24T06:45:34.966Z,95453.47
2018-03-24T06:48:02.430Z,95458.08
2018-03-24T06:50:29.882Z,95458.94
2018-03-24T06:52:57.282Z,95456.78
2018-03-24T06:55:24.829Z,95457.84
2018-03-24T06:57:52.246Z,95457.19
2018-03-24T07:00:19.777Z,95455.63
2018-03-24T07:02:47.230Z,95454.05
2018-03-24T07:05:14.860Z,95458.97
2018-03-24T07:07:42.279Z,95455.02
2018-03-24T07:10:09.701Z,95454.48
2018-03-24T07:12:38.031Z,95453.58
2018-03-24T07:15:05.444Z,95460.10
2018-03-24T07:17:32.869Z,95461.97
2018-03-24T07:20:00.442Z,95458.02
2018-03-24T07:22:27.883Z,95460.30
2018-03-24T07:24:55.317Z,95457.88
2018-03-24T07:27:22.744Z,95454.48
2018-03-24T07:29:50.169Z,95456.64
2018-03-24T07:32:17.606Z,95453.63
2018-03-24T07:34:45.021Z,95458.44
2018-03-24T07:37:12.454Z,95455.73
2018-03-24T07:39:40.570Z,95460.66
2018-03-24T07:42:08.026Z,95462.98
2018-03-24T07:44:35.469Z,95472.23
2018-03-24T07:47:03.061Z,95477.45
2018-03-24T07:49:30.504Z,95473.03
2018-03-24T07:51:57.937Z,95476.75
2018-03-24T07:54:25.344Z,95473.64
2018-03-24T07:56:52.786Z,95470.96
2018-03-24T07:59:20.521Z,95465.13
2018-03-24T08:01:47.942Z,95470.08
2018-03-24T08:04:15.422Z,95460.31
2018-03-24T08:06:42.909Z,95462.50
2018-03-24T08:09:10.370Z,95469.39
2018-03-24T08:11:37.805Z,95468.20
2018-03-24T08:14:05.304Z,95468.66
2018-03-24T08:16:32.736Z,95469.02
2018-03-24T08:19:00.198Z,95463.22
2018-03-24T08:21:27.645Z,95463.88
2018-03-24T08:23:55.042Z,95472.09
2018-03-24T08:26:22.481Z,95462.66
2018-03-24T08:28:50.256Z,95460.33
2018-03-24T08:31:17.709Z,95461.03
2018-03-24T08:33:45.118Z,95463.29
2018-03-24T08:36:12.544Z,95472.48
2018-03-24T08:38:40.015Z,95467.72
2018-03-24T08:41:07.441Z,95470.06
2018-03-24T08:43:35.514Z,95474.06
2018-03-24T08:46:02.958Z,95475.95
2018-03-24T08:48:30.410Z,95473.63
2018-03-24T08:50:57.804Z,95475.04
2018-03-24T08:53:25.208Z,95463.48
2018-03-24T08:55:52.661Z,95457.09
2018-03-24T08:58:20.126Z,95466.14
2018-03-24T09:00:47.574Z,95463.58
2018-03-24T09:03:14.986Z,95465.31
2018-03-24T09:05:42.405Z,95463.73
2018-03-24T09:08:10.779Z,95455.89
2018-03-24T09:10:38.239Z,95451.62
2018-03-24T09:13:05.671Z,95457.19
2018-03-24T09:15:33.210Z,95460.08
2018-03-24T09:18:00.618Z,95462.59
2018-03-24T09:20:28.055Z,95462.70
2018-03-24T09:22:55.495Z,95470.29
2018-03-24T09:25:22.957Z,95465.11
2018-03-24T09:27:50.405Z,95463.23
2018-03-24T09:30:17.838Z,95459.12
2018-03-24T09:32:45.298Z,95464.91
2018-03-24T09:35:12.828Z,95465.38
2018-03-24T09:37:40.290Z,95465.02
2018-03-24T09:40:07.806Z,95464.09
2018-03-24T09:42:35.310Z,95464.98
2018-03-24T09:45:03.784Z,95467.56
2018-03-24T09:47:31.219Z,95459.67
2018-03-24T09:49:58.591Z,95459.80
2018-03-24T09:52:26.457Z,95458.98
2018-03-24T09:54:54.461Z,95459.05
2018-03-24T09:57:21.909Z,95462.48
2018-03-24T09:59:49.369Z,95460.16
2018-03-24T10:02:16.800Z,95461.67
2018-03-24T10:04:44.353Z,95462.60
2018-03-24T10:07:11.846Z,95463.70
2018-03-24T10:09:39.484Z,95466.43
2018-03-24T10:12:06.916Z,95460.61
2018-03-24T10:14:34.350Z,95461.99
2018-03-24T10:17:01.823Z,95460.54
2018-03-24T10:19:29.245Z,95459.78
2018-03-24T10:24:55.128Z,95452.94
2018-03-24T10:27:22.593Z,95452.50
2018-03-24T10:29:50.025Z,95455.36
2018-03-24T10:32:17.479Z,95451.86
2018-03-24T10:34:44.914Z,95449.75
2018-03-24T10:37:12.348Z,95451.70
2018-03-24T10:39:39.830Z,95452.16
2018-03-24T10:42:07.271Z,95456.50
2018-03-24T10:47:08.469Z,95453.94
2018-03-24T10:49:35.869Z,95443.27
2018-03-24T10:52:03.319Z,95444.59
2018-03-24T10:54:30.711Z,95453.02
2018-03-24T10:56:58.185Z,95450.96
2018-03-24T10:59:25.593Z,95455.98
2018-03-24T11:01:53.051Z,95458.28
2018-03-24T11:04:20.479Z,95458.42
2018-03-24T11:06:47.925Z,95454.53
2018-03-24T11:09:15.331Z,95454.55
2018-03-24T11:11:42.769Z,95446.57
2018-03-24T11:14:10.196Z,95452.28
2018-03-24T11:16:37.588Z,95452.76
2018-03-24T11:19:05.021Z,95450.47
2018-03-24T11:21:32.513Z,95446.48
2018-03-24T11:23:59.937Z,95448.01
2018-03-24T11:26:27.549Z,95434.69
2018-03-24T11:28:54.974Z,95436.68
2018-03-24T11:31:22.432Z,95445.28
2018-03-24T11:33:50.108Z,95443.42
2018-03-24T11:36:18.378Z,95436.67
2018-03-24T11:38:45.855Z,95436.77
2018-03-24T11:41:13.290Z,95432.70
2018-03-24T11:43:40.690Z,95433.83
2018-03-24T11:46:08.504Z,95438.70
2018-03-24T11:48:36.091Z,95428.90
2018-03-24T11:51:03.534Z,95426.27
2018-03-24T11:53:42.867Z,95427.03
2018-03-24T11:56:10.440Z,95432.05
2018-03-24T11:58:37.863Z,95428.34
2018-03-24T12:01:05.357Z,95424.75
2018-03-24T12:03:32.774Z,95426.16
2018-03-24T12:06:00.258Z,95416.30
2018-03-24T12:08:27.726Z,95415.56
2018-03-24T12:10:55.152Z,95421.90
2018-03-24T12:13:22.560Z,95424.17
2018-03-24T12:15:49.997Z,95424.84
2018-03-24T12:18:17.428Z,95414.44
2018-03-24T12:20:44.891Z,95412.74
2018-03-24T12:23:12.297Z,95415.38
2018-03-24T12:25:39.732Z,95411.45
2018-03-24T12:28:07.169Z,95409.94
2018-03-24T12:30:34.596Z,95405.77
2018-03-24T12:33:02.027Z,95409.11
2018-03-24T12:35:29.381Z,95399.70
2018-03-24T12:37:56.781Z,95403.03
2018-03-24T12:40:24.409Z,95400.92
2018-03-24T12:42:51.809Z,95394.52
2018-03-24T12:45:19.244Z,95392.33
2018-03-24T12:47:46.681Z,95387.34
2018-03-24T12:50:14.113Z,95387.98
2018-03-24T12:52:41.636Z,95384.68
2018-03-24T12:55:09.109Z,95372.95
2018-03-24T12:57:36.584Z,95367.52
2018-03-24T13:00:04.024Z,95375.08
2018-03-24T13:02:31.486Z,95366.11
2018-03-24T13:04:58.901Z,95369.06
2018-03-24T13:07:26.366Z,95371.76
2018-03-24T13:09:53.857Z,95369.02
2018-03-24T13:12:21.393Z,95372.53
2018-03-24T13:14:48.849Z,95376.08
2018-03-24T13:17:16.686Z,95370.84
2018-03-24T13:19:44.122Z,95373.37
2018-03-24T13:22:11.496Z,95371.59
2018-03-24T13:24:38.890Z,95376.25
2018-03-24T13:27:06.365Z,95369.28
2018-03-24T13:29:33.834Z,95374.73
2018-03-24T13:32:01.253Z,95372.79
2018-03-24T13:34:28.730Z,95372.66
2018-03-24T13:36:56.176Z,95366.65
2018-03-24T13:39:23.730Z,95364.81
2018-03-24T13:41:51.207Z,95362.84
2018-03-24T13:44:19.035Z,95364.27
2018-03-24T13:46:46.490Z,95369.70
2018-03-24T13:49:13.921Z,95354.61
2018-03-24T13:51:41.322Z,95351.09
2018-03-24T13:54:09.262Z,95354.30
2018-03-24T13:56:36.742Z,95364.24
2018-03-24T13:59:04.171Z,95356.42
2018-03-24T14:01:31.816Z,95358.75
2018-03-24T14:03:59.223Z,95356.55
2018-03-24T14:06:26.649Z,95348.64
2018-03-24T14:08:54.085Z,95350.53
2018-03-24T14:11:21.599Z,95353.72
2018-03-24T14:13:49.061Z,95358.65
2018-03-24T14:16:16.554Z,95351.45
2018-03-24T14:18:44.087Z,95346.24
2018-03-24T14:21:11.965Z,95345.18
2018-03-24T14:23:39.395Z,95348.38
2018-03-24T14:26:06.816Z,95346.66
2018-03-24T14:28:34.328Z,95347.87
2018-03-24T14:31:01.790Z,95349.41
2018-03-24T14:33:29.213Z,95349.96
2018-03-24T14:35:56.626Z,95349.87
2018-03-24T14:38:24.092Z,95351.54
2018-03-24T14:40:51.922Z,95347.78
2018-03-24T14:43:19.434Z,95350.69
2018-03-24T14:45:47.070Z,95353.58
2018-03-24T14:48:14.452Z,95346.78
2018-03-24T14:50:41.894Z,95353.03
2018-03-24T14:53:09.320Z,95356.63
2018-03-24T14:55:36.775Z,95357.70
2018-03-24T14:58:04.180Z,95355.27
2018-03-24T15:00:32.464Z,95353.66
2018-03-24T15:03:00.196Z,95349.48
2018-03-24T15:05:27.606Z,95359.20
2018-03-24T15:07:55.007Z,95353.81
2018-03-24T15:10:22.452Z,95356.14
2018-03-24T15:12:49.865Z,95349.20
2018-03-24T15:15:17.262Z,95353.23
2018-03-24T15:17:44.752Z,95351.54
2018-03-24T15:20:12.172Z,95351.97
2018-03-24T15:22:39.659Z,95344.41
2018-03-24T15:25:07.446Z,95346.78
2018-03-24T15:27:34.934Z,95352.79
2018-03-24T15:30:14.061Z,95357.97
2018-03-24T15:32:52.320Z,95355.00
2018-03-24T15:35:34.348Z,95362.23
2018-03-24T15:38:01.818Z,95355.28
2018-03-24T15:40:29.252Z,95356.44
2018-03-24T15:42:56.671Z,95359.78
2018-03-24T15:45:24.078Z,95355.36
2018-03-24T15:47:51.616Z,95361.95
2018-03-24T15:50:19.122Z,95353.50
2018-03-24T15:52:46.574Z,95364.17
2018-03-24T15:55:14.028Z,95363.78
2018-03-24T15:57:41.569Z,95371.82
2018-03-24T16:00:08.961Z,95369.55
2018-03-24T16:02:36.366Z,95369.47
2018-03-24T16:05:03.789Z,95366.37
2018-03-24T16:07:31.591Z,95371.61
2018-03-24T16:09:59.051Z,95367.23
2018-03-24T16:12:26.532Z,95373.80
2018-03-24T16:14:53.962Z,95370.43
2018-03-24T16:17:21.556Z,95371.10
2018-03-24T16:19:48.990Z,95369.06
2018-03-24T16:22:16.471Z,95372.33
2018-03-24T16:24:43.968Z,95375.95
2018-03-24T16:27:11.499Z,95382.80
2018-03-24T16:29:38.937Z,95382.29
2018-03-24T16:32:06.607Z,95385.89
2018-03-24T16:34:34.349Z,95387.86
2018-03-24T16:37:01.746Z,95393.14
2018-03-24T16:39:29.226Z,95392.73
2018-03-24T16:41:56.639Z,95395.66
2018-03-24T16:44:24.065Z,95393.14
2018-03-24T16:46:51.515Z,95390.50
2018-03-24T16:49:18.959Z,95400.34
2018-03-24T16:51:46.441Z,95407.53
2018-03-24T16:54:13.872Z,95414.61
2018-03-24T16:56:41.288Z,95411.23
2018-03-24T16:59:08.730Z,95414.31
2018-03-24T17:01:36.296Z,95419.66
2018-03-24T17:04:03.725Z,95420.14
2018-03-24T17:06:31.220Z,95428.73
2018-03-24T17:08:58.774Z,95434.47
2018-03-24T17:11:26.229Z,95435.02
2018-03-24T17:13:53.694Z,95438.95
2018-03-24T17:16:21.121Z,95435.70
2018-03-24T17:18:48.548Z,95440.97
2018-03-24T17:21:16.001Z,95453.27
2018-03-24T17:23:43.481Z,95449.13
2018-03-24T17:26:10.883Z,95454.57
2018-03-24T17:28:38.277Z,95458.87
2018-03-24T17:31:05.679Z,95450.07
2018-03-24T17:33:33.075Z,95459.06
2018-03-24T17:36:01.147Z,95459.84
2018-03-24T17:38:28.570Z,95467.18
2018-03-24T17:40:56.084Z,95468.77
2018-03-24T17:43:23.519Z,95478.07
2018-03-24T17:45:51.043Z,95473.26
2018-03-24T17:48:18.586Z,95469.59
2018-03-24T17:50:45.972Z,95468.09
2018-03-24T17:53:13.426Z,95478.50
2018-03-24T17:55:40.900Z,95481.47
2018-03-24T17:58:08.328Z,95483.00
2018-03-24T18:00:35.782Z,95489.90
2018-03-24T18:03:03.235Z,95484.45
2018-03-24T18:05:30.664Z,95493.23
2018-03-24T18:07:58.165Z,95494.83
2018-03-24T18:10:25.728Z,95500.02
2018-03-24T18:12:53.282Z,95513.89
2018-03-24T18:15:20.840Z,95514.81
2018-03-24T18:17:48.232Z,95517.25
2018-03-24T18:20:15.656Z,95525.15
2018-03-24T18:22:43.088Z,95530.89
2018-03-24T18:25:10.476Z,95527.28
2018-03-24T18:27:38.355Z,95538.58
2018-03-24T18:30:05.829Z,95536.92
2018-03-24T18:32:33.250Z,95547.15
2018-03-24T18:35:00.703Z,95544.65
2018-03-24T18:37:28.125Z,95544.49
2018-03-24T18:39:56.371Z,95541.77
2018-03-24T18:42:23.779Z,95544.00
2018-03-24T18:44:51.193Z,95552.46
2018-03-24T18:47:18.698Z,95558.92
2018-03-24T18:49:46.131Z,95563.53
2018-03-24T18:52:13.557Z,95561.28
2018-03-24T18:54:41.023Z,95564.62
2018-03-24T18:57:08.566Z,95569.30
2018-03-24T18:59:35.974Z,95575.96
2018-03-24T19:02:03.430Z,95576.31
2018-03-24T19:04:30.844Z,95579.28
2018-03-24T19:06:58.363Z,95581.06
2018-03-24T19:09:25.840Z,95582.86
2018-03-24T19:11:53.248Z,95579.70
2018-03-24T19:14:20.705Z,95587.28
2018-03-24T19:16:48.134Z,95590.00
2018-03-24T19:19:15.573Z,95584.80
2018-03-24T19:21:42.997Z,95582.93
2018-03-24T19:24:10.488Z,95587.00
2018-03-24T19:26:37.931Z,95593.45
2018-03-24T19:29:05.357Z,95599.61
2018-03-24T19:31:32.870Z,95592.95
2018-03-24T19:34:00.278Z,95596.80
2018-03-24T19:36:27.756Z,95606.41
2018-03-24T19:38:55.864Z,95609.36
2018-03-24T19:41:23.331Z,95610.70
2018-03-24T19:43:50.904Z,95617.25
2018-03-24T19:46:18.520Z,95616.81
2018-03-24T19:48:45.990Z,95613.91
2018-03-24T19:51:13.448Z,95622.62
2018-03-24T19:53:40.910Z,95619.72
2018-03-24T19:56:08.358Z,95616.53
2018-03-24T19:58:35.880Z,95627.80
2018-03-24T20:01:03.349Z,95634.76
2018-03-24T20:03:30.751Z,95630.16
2018-03-24T20:05:58.205Z,95624.45
2018-03-24T20:08:25.649Z,95632.85
2018-03-24T20:10:53.272Z,95631.90
2018-03-24T20:13:20.714Z,95632.17
2018-03-24T20:15:48.468Z,95635.05
2018-03-24T20:18:16.297Z,95634.71
2018-03-24T20:20:43.737Z,95639.26
2018-03-24T20:23:11.144Z,95648.80
2018-03-24T20:25:38.620Z,95658.26
2018-03-24T20:28:06.032Z,95655.36
2018-03-24T20:30:33.479Z,95666.27
2018-03-24T20:33:01.015Z,95668.61
2018-03-24T20:35:28.423Z,95665.52
2018-03-24T20:37:56.010Z,95668.34
2018-03-24T20:40:23.434Z,95668.55
2018-03-24T20:42:50.918Z,95676.78
2018-03-24T20:45:18.391Z,95680.77
2018-03-24T20:47:45.989Z,95677.42
2018-03-24T20:50:13.344Z,95683.72
2018-03-24T20:52:40.763Z,95679.37
2018-03-24T20:55:08.218Z,95678.36
2018-03-24T20:57:35.788Z,95689.46
2018-03-24T21:00:03.241Z,95696.27
2018-03-24T21:02:30.911Z,95698.41
2018-03-24T21:04:58.363Z,95696.92
2018-03-24T21:07:25.755Z,95694.79
2018-03-24T21:09:53.206Z,95698.31
2018-03-24T21:12:20.655Z,95692.32
2018-03-24T21:14:48.101Z,95690.36
2018-03-24T21:17:15.541Z,95688.93
2018-03-24T21:19:43.108Z,95696.47
2018-03-24T21:22:10.564Z,95699.08
2018-03-24T21:24:37.984Z,95707.20
2018-03-24T21:27:05.479Z,95706.95
2018-03-24T21:29:32.870Z,95708.47
2018-03-24T21:32:00.327Z,95713.50
2018-03-24T21:34:27.804Z,95712.84
2018-03-24T21:36:55.243Z,95716.92
2018-03-24T21:39:22.671Z,95718.55
2018-03-24T21:41:50.104Z,95722.70
2018-03-24T21:44:17.525Z,95730.41
2018-03-24T21:46:44.963Z,95733.68
2018-03-24T21:49:12.367Z,95731.50
2018-03-24T21:51:40.517Z,95731.03
2018-03-24T21:54:07.891Z,95731.02
2018-03-24T21:56:35.287Z,95724.80
2018-03-24T21:59:02.754Z,95730.75
2018-03-24T22:01:30.290Z,95739.81
2018-03-24T22:03:57.743Z,95739.31
2018-03-24T22:06:25.138Z,95743.92
2018-03-24T22:08:52.574Z,95743.94
2018-03-24T22:11:20.001Z,95739.72
2018-03-24T22:13:47.389Z,95745.34
2018-03-24T22:16:14.837Z,95743.73
2018-03-24T22:18:42.325Z,95740.56
2018-03-24T22:21:09.747Z,95741.76
2018-03-24T22:23:37.152Z,95752.94
2018-03-24T22:26:04.585Z,95746.45
2018-03-24T22:28:31.972Z,95750.47
2018-03-24T22:30:59.385Z,95749.23
2018-03-24T22:33:26.788Z,95742.68
2018-03-24T22:35:54.232Z,95739.31
2018-03-24T22:38:21.654Z,95742.44
2018-03-24T22:40:49.081Z,95740.97
2018-03-24T22:43:16.558Z,95747.58
2018-03-24T22:45:43.985Z,95748.80
2018-03-24T22:48:11.406Z,95749.59
2018-03-24T22:50:38.829Z,95757.90
2018-03-24T22:53:06.314Z,95752.97
2018-03-24T22:55:33.810Z,95761.10
2018-03-24T22:58:01.258Z,95763.69
2018-03-24T23:00:28.720Z,95764.37
2018-03-24T23:02:56.211Z,95766.76
2018-03-24T23:05:23.682Z,95762.42
2018-03-24T23:07:51.098Z,95767.17
2018-03-24T23:10:18.576Z,95770.27
2018-03-24T23:12:46.042Z,95780.36
2018-03-24T23:15:13.513Z,95771.17
2018-03-24T23:17:41.063Z,95772.81
2018-03-24T23:20:08.510Z,95767.58
2018-03-24T23:22:35.928Z,95770.16
2018-03-24T23:25:03.359Z,95770.80
2018-03-24T23:27:30.746Z,95782.54
2018-03-24T23:29:58.338Z,95780.33
2018-03-24T23:32:25.756Z,95785.19
2018-03-24T23:34:53.144Z,95787.51
2018-03-24T23:37:20.593Z,95781.34
2018-03-24T23:39:47.982Z,95784.78
2018-03-24T23:42:15.488Z,95786.53
2018-03-24T23:44:43.085Z,95786.27
2018-03-24T23:47:10.551Z,95783.02
2018-03-24T23:49:37.936Z,95787.95
2018-03-24T23:52:05.373Z,95781.41
2018-03-24T23:54:32.835Z,95794.42
2018-03-24T23:57:00.265Z,95788.41
2018-03-24T23:59:27.853Z,95791.21
